Time;durP1;ratioP1;P1;durP2;ratioP2;P2;SDS_P1;SDS_P2;PMS_P1;PMS_P2;Temp;Humidity;BMP_temperature;BMP_pressure;BME280_temperature;BME280_humidity;BME280_pressure;Samples;Min_cycle;Max_cycle;Signal;HPM_P1;HPM_P2
2021/12/10 00:01:23;;;;;;;44.65;24.02;;;;;;;;;;4808337;29;20138;-75
2021/12/10 00:03:51;;;;;;;43.15;24.92;;;;;;;;;;4824791;29;20129;-72
2021/12/10 00:06:28;;;;;;;42.20;25.05;;;;;;;;;;4823534;29;20058;-73
2021/12/10 00:08:57;;;;;;;42.80;24.83;;;;;;;;;;4807232;29;20046;-74
2021/12/10 00:11:31;;;;;;;46.42;24.23;;;;;;;;;;4824178;29;20057;-73
2021/12/10 00:13:57;;;;;;;39.60;22.65;;;;;;;;;;4793657;29;20082;-73
2021/12/10 00:16:24;;;;;;;42.92;23.33;;;;;;;;;;4799031;29;20046;-73
2021/12/10 00:19:06;;;;;;;45.80;22.23;;;;;;;;;;4806530;29;20047;-74
2021/12/10 00:21:32;;;;;;;43.22;23.95;;;;;;;;;;4792982;29;20046;-72
2021/12/10 00:23:59;;;;;;;40.10;23.70;;;;;;;;;;4808215;29;20054;-74
2021/12/10 00:26:25;;;;;;;39.45;23.17;;;;;;;;;;4808765;29;20050;-74
2021/12/10 00:29:00;;;;;;;40.70;22.67;;;;;;;;;;4810496;29;20050;-73
2021/12/10 00:34:00;;;;;;;35.88;20.52;;;;;;;;;;4827575;29;20065;-73
2021/12/10 00:36:26;;;;;;;42.38;21.60;;;;;;;;;;4827750;29;20432;-74
2021/12/10 00:38:53;;;;;;;39.75;20.98;;;;;;;;;;4828420;29;20046;-72
2021/12/10 00:41:20;;;;;;;38.25;20.85;;;;;;;;;;4812952;29;20136;-73
2021/12/10 00:43:46;;;;;;;34.25;18.80;;;;;;;;;;4806190;29;20050;-73
2021/12/10 00:46:12;;;;;;;33.92;19.42;;;;;;;;;;4814196;29;20422;-74
2021/12/10 00:48:38;;;;;;;35.50;19.75;;;;;;;;;;4811699;29;20098;-74
2021/12/10 00:51:06;;;;;;;31.80;19.17;;;;;;;;;;4826647;29;20043;-74
2021/12/10 00:53:33;;;;;;;36.08;19.25;;;;;;;;;;4811425;29;20456;-73
2021/12/10 00:55:59;;;;;;;35.38;19.52;;;;;;;;;;4826637;29;20058;-73
2021/12/10 00:58:25;;;;;;;35.33;20.88;;;;;;;;;;4796465;29;20115;-73
2021/12/10 01:00:53;;;;;;;30.30;18.83;;;;;;;;;;4826932;29;20127;-74
2021/12/10 01:03:21;;;;;;;33.35;19.23;;;;;;;;;;4827352;29;20054;-73
2021/12/10 01:05:51;;;;;;;38.63;19.20;;;;;;;;;;4810919;29;20054;-73
2021/12/10 01:08:17;;;;;;;37.30;19.90;;;;;;;;;;4807560;29;20066;-73
2021/12/10 01:10:47;;;;;;;33.20;20.13;;;;;;;;;;4810418;29;20110;-73
2021/12/10 01:13:17;;;;;;;35.25;18.42;;;;;;;;;;4827015;29;20161;-74
2021/12/10 01:23:56;;;;;;;42.63;20.85;;;;;;;;;;4827186;29;20050;-74
2021/12/10 01:29:15;;;;;;;37.20;19.95;;;;;;;;;;4827062;29;20061;-73
2021/12/10 01:31:42;;;;;;;34.05;18.95;;;;;;;;;;4826371;29;20088;-73
2021/12/10 01:34:10;;;;;;;41.05;21.05;;;;;;;;;;4826529;29;20073;-75
2021/12/10 01:36:36;;;;;;;35.45;20.58;;;;;;;;;;4807575;29;20058;-73
2021/12/10 01:39:05;;;;;;;32.75;20.25;;;;;;;;;;4824824;29;20058;-73
2021/12/10 01:41:36;;;;;;;31.17;18.38;;;;;;;;;;4826686;29;20054;-74
2021/12/10 01:44:12;;;;;;;39.45;20.08;;;;;;;;;;4825743;29;20122;-73
2021/12/10 01:46:40;;;;;;;34.25;19.95;;;;;;;;;;4822723;29;20053;-73
2021/12/10 01:49:06;;;;;;;38.35;20.23;;;;;;;;;;4825230;29;20125;-73
2021/12/10 01:51:34;;;;;;;30.90;18.08;;;;;;;;;;4802355;29;20050;-72
2021/12/10 01:54:05;;;;;;;35.47;18.17;;;;;;;;;;4826314;29;20522;-73
2021/12/10 01:56:32;;;;;;;34.13;18.30;;;;;;;;;;4808002;29;20139;-74
2021/12/10 01:59:00;;;;;;;34.63;18.55;;;;;;;;;;4826491;29;20049;-72
2021/12/10 02:01:29;;;;;;;31.65;18.70;;;;;;;;;;4824103;29;20080;-74
2021/12/10 02:03:55;;;;;;;31.58;18.30;;;;;;;;;;4795123;29;20059;-74
2021/12/10 02:06:22;;;;;;;31.55;17.83;;;;;;;;;;4822950;29;20122;-74
2021/12/10 02:08:48;;;;;;;31.13;19.00;;;;;;;;;;4827001;29;20126;-73
2021/12/10 02:11:15;;;;;;;29.98;18.38;;;;;;;;;;4825124;29;20050;-74
2021/12/10 02:13:42;;;;;;;31.80;18.27;;;;;;;;;;4824041;29;20375;-72
2021/12/10 02:16:08;;;;;;;32.60;16.73;;;;;;;;;;4792992;29;20054;-73
2021/12/10 02:18:37;;;;;;;30.92;17.95;;;;;;;;;;4825566;29;20100;-73
2021/12/10 02:21:03;;;;;;;26.85;15.65;;;;;;;;;;4810155;29;20085;-73
2021/12/10 02:23:36;;;;;;;30.40;16.27;;;;;;;;;;4826089;29;20098;-74
2021/12/10 02:26:03;;;;;;;27.35;15.93;;;;;;;;;;4826613;29;20317;-73
2021/12/10 02:28:29;;;;;;;28.75;15.77;;;;;;;;;;4809967;29;20379;-72
2021/12/10 02:30:56;;;;;;;25.70;15.32;;;;;;;;;;4807882;29;20062;-73
2021/12/10 02:33:23;;;;;;;27.20;15.55;;;;;;;;;;4809529;29;20404;-71
2021/12/10 02:35:49;;;;;;;24.00;14.38;;;;;;;;;;4810695;29;20058;-73
2021/12/10 02:38:17;;;;;;;26.00;15.32;;;;;;;;;;4826141;29;20046;-72
2021/12/10 02:40:44;;;;;;;25.13;15.45;;;;;;;;;;4810213;29;20162;-74
2021/12/10 02:43:12;;;;;;;27.52;15.20;;;;;;;;;;4809727;29;20095;-73
2021/12/10 02:45:39;;;;;;;26.08;15.13;;;;;;;;;;4826322;29;20057;-73
2021/12/10 02:48:05;;;;;;;24.02;13.40;;;;;;;;;;4821785;29;20499;-73
2021/12/10 02:50:32;;;;;;;23.10;13.68;;;;;;;;;;4792403;29;20102;-72
2021/12/10 02:52:59;;;;;;;25.92;13.55;;;;;;;;;;4817627;29;20450;-73
2021/12/10 02:55:25;;;;;;;21.25;12.60;;;;;;;;;;4809849;29;20464;-72
2021/12/10 02:57:58;;;;;;;24.30;13.57;;;;;;;;;;4825959;29;20074;-73
2021/12/10 03:00:28;;;;;;;21.88;13.23;;;;;;;;;;4794836;29;20356;-73
2021/12/10 03:02:54;;;;;;;23.80;13.60;;;;;;;;;;4825142;29;20372;-73
2021/12/10 03:05:20;;;;;;;23.02;13.50;;;;;;;;;;4826240;29;20062;-73
2021/12/10 03:07:47;;;;;;;21.42;12.90;;;;;;;;;;4809016;29;20092;-74
2021/12/10 03:10:16;;;;;;;25.30;12.98;;;;;;;;;;4809728;29;20057;-73
2021/12/10 03:12:43;;;;;;;23.63;13.50;;;;;;;;;;4809472;29;20066;-74
2021/12/10 03:15:09;;;;;;;27.90;13.25;;;;;;;;;;4808036;29;20464;-74
2021/12/10 03:17:36;;;;;;;23.63;13.73;;;;;;;;;;4825384;29;20054;-73
2021/12/10 03:20:04;;;;;;;20.90;13.15;;;;;;;;;;4825550;29;20077;-73
2021/12/10 03:22:30;;;;;;;23.45;13.02;;;;;;;;;;4809395;29;20058;-72
2021/12/10 03:24:58;;;;;;;24.35;14.18;;;;;;;;;;4809460;29;20437;-74
2021/12/10 03:27:24;;;;;;;20.30;13.02;;;;;;;;;;4825658;29;20093;-73
2021/12/10 03:29:50;;;;;;;23.20;13.68;;;;;;;;;;4825521;29;20102;-73
2021/12/10 03:32:23;;;;;;;33.08;13.57;;;;;;;;;;4808555;29;20064;-72
2021/12/10 03:34:50;;;;;;;25.85;13.82;;;;;;;;;;4825792;29;20126;-73
2021/12/10 03:37:18;;;;;;;22.38;13.15;;;;;;;;;;4808720;29;20046;-73
2021/12/10 03:39:44;;;;;;;19.02;12.25;;;;;;;;;;4825720;29;20054;-72
2021/12/10 03:42:11;;;;;;;19.98;12.35;;;;;;;;;;4808676;29;20463;-73
2021/12/10 03:44:37;;;;;;;18.90;11.80;;;;;;;;;;4808860;29;20054;-74
2021/12/10 03:47:05;;;;;;;21.55;12.20;;;;;;;;;;4809384;29;20051;-72
2021/12/10 03:49:31;;;;;;;22.05;12.63;;;;;;;;;;4825448;29;20062;-73
2021/12/10 03:51:57;;;;;;;17.83;11.90;;;;;;;;;;4808703;29;20122;-73
2021/12/10 03:54:23;;;;;;;20.52;12.98;;;;;;;;;;4796012;29;20082;-72
2021/12/10 03:56:50;;;;;;;19.85;12.77;;;;;;;;;;4791167;29;20095;-74
2021/12/10 03:59:17;;;;;;;18.50;12.30;;;;;;;;;;4809185;29;20054;-74
2021/12/10 04:01:45;;;;;;;22.23;12.63;;;;;;;;;;4809551;29;20058;-72
2021/12/10 04:04:13;;;;;;;19.90;11.77;;;;;;;;;;4824842;29;20050;-74
2021/12/10 04:06:39;;;;;;;22.35;13.13;;;;;;;;;;4824695;29;20058;-75
2021/12/10 04:09:06;;;;;;;22.13;12.73;;;;;;;;;;4808869;29;20069;-74
2021/12/10 04:11:32;;;;;;;19.45;12.90;;;;;;;;;;4808781;29;20141;-73
2021/12/10 04:13:59;;;;;;;24.05;13.43;;;;;;;;;;4808649;29;20062;-73
2021/12/10 04:16:25;;;;;;;19.20;12.02;;;;;;;;;;4824519;29;20062;-74
2021/12/10 04:18:54;;;;;;;26.80;13.50;;;;;;;;;;4808830;29;20057;-74
2021/12/10 04:21:20;;;;;;;18.70;12.23;;;;;;;;;;4809067;29;20059;-72
2021/12/10 04:23:47;;;;;;;21.02;12.70;;;;;;;;;;4822972;29;20464;-74
2021/12/10 04:26:14;;;;;;;20.90;12.45;;;;;;;;;;4790735;29;20050;-73
2021/12/10 04:28:41;;;;;;;20.65;12.48;;;;;;;;;;4820522;29;20046;-72
2021/12/10 04:31:07;;;;;;;19.98;12.65;;;;;;;;;;4808927;29;20061;-73
2021/12/10 04:33:33;;;;;;;21.20;12.25;;;;;;;;;;4824219;29;20344;-72
2021/12/10 04:36:01;;;;;;;20.85;12.93;;;;;;;;;;4825017;29;20054;-73
2021/12/10 04:38:29;;;;;;;20.75;12.40;;;;;;;;;;4808225;29;20157;-73
2021/12/10 04:40:57;;;;;;;24.30;13.60;;;;;;;;;;4794075;29;20067;-72
2021/12/10 04:43:24;;;;;;;24.85;12.57;;;;;;;;;;4808532;29;20054;-74
2021/12/10 04:45:53;;;;;;;19.33;13.48;;;;;;;;;;4823038;29;20058;-73
2021/12/10 04:48:19;;;;;;;22.92;13.18;;;;;;;;;;4824511;29;20062;-72
2021/12/10 04:50:45;;;;;;;22.40;12.45;;;;;;;;;;4808389;29;20065;-72
2021/12/10 04:53:12;;;;;;;23.80;12.25;;;;;;;;;;4808368;29;20054;-72
2021/12/10 04:55:40;;;;;;;24.10;13.65;;;;;;;;;;4808253;29;20065;-72
2021/12/10 04:58:06;;;;;;;19.30;12.70;;;;;;;;;;4793543;29;20051;-72
2021/12/10 05:00:37;;;;;;;21.75;12.32;;;;;;;;;;4824443;29;20115;-74
2021/12/10 05:03:05;;;;;;;20.60;11.85;;;;;;;;;;4790743;29;20055;-74
2021/12/10 05:05:32;;;;;;;16.80;12.95;;;;;;;;;;4808251;29;20125;-73
2021/12/10 05:07:58;;;;;;;19.67;12.27;;;;;;;;;;4808179;29;20047;-74
2021/12/10 05:10:25;;;;;;;23.88;12.32;;;;;;;;;;4808127;29;20090;-73
2021/12/10 05:12:51;;;;;;;20.35;12.90;;;;;;;;;;4824519;29;20070;-74
2021/12/10 05:15:19;;;;;;;21.60;13.32;;;;;;;;;;4821926;29;20170;-72
2021/12/10 05:17:45;;;;;;;22.92;13.65;;;;;;;;;;4783190;29;20129;-74
2021/12/10 05:20:19;;;;;;;22.85;15.30;;;;;;;;;;4793384;29;20058;-73
2021/12/10 05:22:46;;;;;;;19.85;13.10;;;;;;;;;;4800374;29;20092;-72
2021/12/10 05:25:12;;;;;;;21.25;13.57;;;;;;;;;;4827590;29;20054;-73
2021/12/10 05:27:39;;;;;;;20.63;13.02;;;;;;;;;;4810808;29;20162;-73
2021/12/10 05:30:06;;;;;;;17.23;12.30;;;;;;;;;;4827522;29;20061;-72
2021/12/10 05:32:33;;;;;;;21.55;13.95;;;;;;;;;;4810794;29;20058;-73
2021/12/10 05:35:00;;;;;;;21.30;13.88;;;;;;;;;;4811526;29;20062;-72
2021/12/10 05:37:26;;;;;;;21.95;13.98;;;;;;;;;;4811478;29;20133;-72
2021/12/10 05:39:52;;;;;;;27.83;14.32;;;;;;;;;;4811775;29;20140;-73
2021/12/10 05:42:18;;;;;;;22.10;12.88;;;;;;;;;;4810488;29;20076;-72
2021/12/10 05:44:45;;;;;;;21.10;13.88;;;;;;;;;;4827218;29;20136;-72
2021/12/10 05:47:11;;;;;;;23.73;13.73;;;;;;;;;;4811267;29;20055;-72
2021/12/10 05:49:37;;;;;;;22.05;13.70;;;;;;;;;;4824949;29;20046;-73
2021/12/10 05:52:04;;;;;;;21.10;13.77;;;;;;;;;;4827306;29;20065;-73
2021/12/10 05:54:31;;;;;;;24.25;13.27;;;;;;;;;;4807420;29;20107;-74
2021/12/10 05:56:57;;;;;;;23.42;14.15;;;;;;;;;;4811007;29;20043;-72
2021/12/10 05:59:23;;;;;;;20.63;14.10;;;;;;;;;;4810808;29;20050;-72
2021/12/10 06:01:49;;;;;;;23.33;15.15;;;;;;;;;;4811055;29;20050;-72
2021/12/10 06:04:21;;;;;;;21.33;14.90;;;;;;;;;;4826642;29;20128;-74
2021/12/10 06:06:47;;;;;;;25.67;16.35;;;;;;;;;;4810399;29;20054;-74
2021/12/10 06:09:13;;;;;;;25.70;16.25;;;;;;;;;;4808803;29;20058;-73
2021/12/10 06:11:39;;;;;;;27.63;16.27;;;;;;;;;;4825777;29;20536;-72
2021/12/10 06:14:06;;;;;;;25.65;16.23;;;;;;;;;;4826829;29;20050;-73
2021/12/10 06:16:33;;;;;;;25.45;15.90;;;;;;;;;;4794184;29;20392;-72
2021/12/10 06:18:59;;;;;;;30.70;16.77;;;;;;;;;;4792931;29;20054;-74
2021/12/10 06:21:25;;;;;;;30.35;17.05;;;;;;;;;;4823859;29;20121;-73
2021/12/10 06:23:52;;;;;;;27.42;16.63;;;;;;;;;;4810541;29;20142;-73
2021/12/10 06:26:18;;;;;;;28.48;17.85;;;;;;;;;;4796159;29;20054;-73
2021/12/10 06:28:45;;;;;;;24.95;17.50;;;;;;;;;;4807851;29;20435;-73
2021/12/10 06:31:13;;;;;;;28.35;17.50;;;;;;;;;;4826355;29;20058;-73
2021/12/10 06:33:40;;;;;;;26.42;16.92;;;;;;;;;;4810046;29;20353;-72
2021/12/10 06:36:06;;;;;;;26.02;16.77;;;;;;;;;;4809486;29;20376;-72
2021/12/10 06:38:34;;;;;;;28.23;16.63;;;;;;;;;;4810236;29;20471;-72
2021/12/10 06:41:00;;;;;;;28.42;17.38;;;;;;;;;;4825977;29;20061;-73
2021/12/10 06:43:26;;;;;;;24.70;17.20;;;;;;;;;;4825481;29;20054;-74
2021/12/10 06:45:53;;;;;;;25.98;17.05;;;;;;;;;;4809669;29;20057;-72
2021/12/10 06:48:20;;;;;;;27.02;16.02;;;;;;;;;;4794996;29;20069;-72
2021/12/10 06:50:48;;;;;;;26.83;17.70;;;;;;;;;;4810038;29;20440;-73
2021/12/10 06:53:14;;;;;;;28.13;17.23;;;;;;;;;;4825309;29;20046;-73
2021/12/10 06:55:40;;;;;;;29.35;17.50;;;;;;;;;;4825418;29;20133;-73
2021/12/10 06:58:07;;;;;;;28.85;17.80;;;;;;;;;;4825943;29;20050;-72
2021/12/10 07:00:41;;;;;;;25.85;17.17;;;;;;;;;;4809444;29;20046;-73
2021/12/10 07:03:07;;;;;;;26.48;17.30;;;;;;;;;;4809555;29;20047;-74
2021/12/10 07:05:33;;;;;;;31.90;18.30;;;;;;;;;;4809507;29;20055;-72
2021/12/10 07:07:59;;;;;;;28.42;18.38;;;;;;;;;;4791636;29;20166;-73
2021/12/10 07:10:25;;;;;;;27.25;18.35;;;;;;;;;;4809019;29;20103;-72
2021/12/10 07:12:51;;;;;;;27.20;17.73;;;;;;;;;;4809161;29;20058;-73
2021/12/10 07:15:18;;;;;;;31.50;19.10;;;;;;;;;;4809116;29;20062;-72
2021/12/10 07:17:48;;;;;;;27.38;18.45;;;;;;;;;;4825092;29;20050;-73
2021/12/10 07:20:15;;;;;;;30.60;19.10;;;;;;;;;;4809278;29;20055;-72
2021/12/10 07:22:42;;;;;;;28.33;18.67;;;;;;;;;;4809920;29;20106;-74
2021/12/10 07:25:09;;;;;;;31.73;18.73;;;;;;;;;;4808172;29;20073;-74
2021/12/10 07:27:35;;;;;;;30.05;19.15;;;;;;;;;;4809959;29;20050;-73
2021/12/10 07:30:01;;;;;;;27.45;18.15;;;;;;;;;;4794136;29;20339;-74
2021/12/10 07:32:28;;;;;;;29.95;17.67;;;;;;;;;;4794797;29;20204;-73
2021/12/10 07:34:54;;;;;;;30.17;19.10;;;;;;;;;;4815606;29;20061;-76
2021/12/10 07:37:21;;;;;;;28.33;18.40;;;;;;;;;;4783028;29;20050;-74
2021/12/10 07:39:47;;;;;;;27.67;17.83;;;;;;;;;;4814809;29;20069;-76
2021/12/10 07:42:13;;;;;;;27.38;18.58;;;;;;;;;;4825213;29;20054;-75
2021/12/10 07:44:40;;;;;;;25.75;17.17;;;;;;;;;;4793877;29;20061;-75
2021/12/10 07:47:10;;;;;;;30.17;17.63;;;;;;;;;;4808801;29;20046;-75
2021/12/10 07:49:37;;;;;;;27.58;17.13;;;;;;;;;;4824978;29;20507;-75
2021/12/10 07:52:06;;;;;;;27.40;18.33;;;;;;;;;;4808770;29;20061;-73
2021/12/10 07:54:32;;;;;;;29.58;18.17;;;;;;;;;;4824898;29;20174;-74
2021/12/10 07:56:58;;;;;;;27.08;17.85;;;;;;;;;;4795982;29;20449;-75
2021/12/10 07:59:24;;;;;;;26.05;17.80;;;;;;;;;;4812162;29;20050;-74
2021/12/10 08:01:51;;;;;;;24.25;16.05;;;;;;;;;;4809154;29;20073;-75
2021/12/10 08:04:17;;;;;;;25.48;15.93;;;;;;;;;;4824750;29;20111;-74
2021/12/10 08:06:43;;;;;;;25.83;16.75;;;;;;;;;;4798148;29;20119;-73
2021/12/10 08:09:09;;;;;;;25.92;17.45;;;;;;;;;;4810293;29;20069;-75
2021/12/10 08:11:36;;;;;;;24.58;17.05;;;;;;;;;;4809139;29;20119;-73
2021/12/10 08:14:02;;;;;;;27.23;16.60;;;;;;;;;;4824433;29;20066;-74
2021/12/10 08:16:30;;;;;;;25.88;16.27;;;;;;;;;;4800594;29;20098;-74
2021/12/10 08:18:57;;;;;;;26.20;16.80;;;;;;;;;;4808443;29;20134;-74
2021/12/10 08:21:24;;;;;;;26.77;16.70;;;;;;;;;;4807147;29;20515;-74
2021/12/10 08:23:52;;;;;;;22.08;15.52;;;;;;;;;;4796952;29;20492;-75
2021/12/10 08:26:18;;;;;;;24.25;15.75;;;;;;;;;;4802187;29;20465;-75
2021/12/10 08:28:45;;;;;;;23.80;15.88;;;;;;;;;;4807150;29;20531;-73
2021/12/10 08:31:14;;;;;;;23.17;15.68;;;;;;;;;;4803513;29;20051;-75
2021/12/10 08:33:42;;;;;;;23.52;15.60;;;;;;;;;;4820844;29;20077;-74
2021/12/10 08:36:09;;;;;;;23.90;14.27;;;;;;;;;;4807156;29;20058;-75
2021/12/10 08:38:36;;;;;;;21.27;14.88;;;;;;;;;;4824397;29;20054;-74
2021/12/10 08:41:10;;;;;;;23.73;15.38;;;;;;;;;;4824341;29;20050;-75
2021/12/10 08:43:36;;;;;;;20.83;14.63;;;;;;;;;;4822182;29;20050;-73
2021/12/10 08:46:04;;;;;;;21.65;14.90;;;;;;;;;;4802235;29;20053;-74
2021/12/10 08:48:30;;;;;;;22.50;14.10;;;;;;;;;;4824963;29;20046;-73
2021/12/10 08:50:59;;;;;;;21.10;14.10;;;;;;;;;;4812377;29;20051;-76
2021/12/10 08:53:25;;;;;;;18.73;13.68;;;;;;;;;;4794493;29;20042;-73
2021/12/10 08:55:52;;;;;;;20.38;13.45;;;;;;;;;;4811381;29;20072;-74
2021/12/10 08:58:19;;;;;;;17.77;12.13;;;;;;;;;;4810597;29;20050;-73
2021/12/10 09:00:47;;;;;;;21.30;12.73;;;;;;;;;;4804537;29;20090;-74
2021/12/10 09:03:14;;;;;;;17.67;12.50;;;;;;;;;;4812814;29;20069;-78
2021/12/10 09:05:40;;;;;;;19.85;12.85;;;;;;;;;;4807443;29;20073;-74
2021/12/10 09:08:06;;;;;;;17.73;12.23;;;;;;;;;;4811082;29;20375;-74
2021/12/10 09:10:35;;;;;;;19.77;12.23;;;;;;;;;;4800953;29;20062;-73
2021/12/10 09:13:01;;;;;;;17.05;11.65;;;;;;;;;;4793617;29;20054;-74
2021/12/10 09:15:28;;;;;;;17.00;11.30;;;;;;;;;;4795359;29;20919;-72
2021/12/10 09:17:58;;;;;;;17.73;11.98;;;;;;;;;;4809555;29;20116;-73
2021/12/10 09:20:28;;;;;;;16.65;11.35;;;;;;;;;;4811888;29;20055;-72
2021/12/10 09:22:54;;;;;;;17.00;11.10;;;;;;;;;;4826177;29;20475;-74
2021/12/10 09:25:20;;;;;;;16.10;11.35;;;;;;;;;;4827371;29;20069;-75
2021/12/10 09:27:46;;;;;;;17.63;11.30;;;;;;;;;;4811592;29;20054;-75
2021/12/10 09:30:14;;;;;;;15.82;10.80;;;;;;;;;;4811884;29;20050;-75
2021/12/10 09:32:41;;;;;;;17.70;11.73;;;;;;;;;;4801204;29;20047;-74
2021/12/10 09:35:09;;;;;;;18.85;10.77;;;;;;;;;;4810700;29;20370;-74
2021/12/10 09:37:37;;;;;;;15.52;10.65;;;;;;;;;;4822658;29;20050;-74
2021/12/10 09:40:04;;;;;;;15.23;10.18;;;;;;;;;;4810564;29;20065;-74
2021/12/10 09:42:32;;;;;;;17.80;11.02;;;;;;;;;;4810858;29;20065;-74
2021/12/10 09:44:58;;;;;;;15.25;10.30;;;;;;;;;;4804555;29;20353;-75
2021/12/10 09:47:24;;;;;;;15.38;10.77;;;;;;;;;;4796172;29;20140;-74
2021/12/10 09:49:52;;;;;;;16.52;10.02;;;;;;;;;;4811716;29;20058;-74
2021/12/10 09:52:21;;;;;;;14.57;9.95;;;;;;;;;;4809530;29;20475;-74
2021/12/10 09:54:47;;;;;;;17.80;10.40;;;;;;;;;;4793619;29;20050;-74
2021/12/10 09:57:15;;;;;;;15.38;9.02;;;;;;;;;;4818405;29;20141;-73
2021/12/10 09:59:42;;;;;;;15.55;10.40;;;;;;;;;;4826195;29;20069;-74
2021/12/10 10:02:09;;;;;;;15.30;10.30;;;;;;;;;;4826622;29;20062;-73
2021/12/10 10:04:36;;;;;;;14.23;9.38;;;;;;;;;;4809171;29;20058;-74
2021/12/10 10:07:12;;;;;;;14.35;9.60;;;;;;;;;;4804942;29;20476;-74
2021/12/10 10:09:38;;;;;;;;;;;;;;;;;;4826992;29;20406;-73
2021/12/10 10:12:07;;;;;;;11.82;8.73;;;;;;;;;;4825841;29;19982;-75
2021/12/10 10:14:33;;;;;;;14.07;8.95;;;;;;;;;;4826592;29;20058;-74
2021/12/10 10:17:00;;;;;;;16.85;9.10;;;;;;;;;;4800419;29;20054;-73
2021/12/10 10:19:27;;;;;;;13.75;9.23;;;;;;;;;;4808703;29;20058;-74
2021/12/10 10:21:55;;;;;;;12.82;8.65;;;;;;;;;;4777772;29;20046;-73
2021/12/10 10:24:22;;;;;;;14.48;9.48;;;;;;;;;;4808506;29;20077;-73
2021/12/10 10:26:57;;;;;;;14.10;9.10;;;;;;;;;;4814407;29;20066;-73
2021/12/10 10:29:26;;;;;;;13.75;8.65;;;;;;;;;;4801950;29;20046;-73
2021/12/10 10:31:55;;;;;;;14.20;8.55;;;;;;;;;;4825456;29;20455;-73
2021/12/10 10:34:21;;;;;;;12.23;8.50;;;;;;;;;;4810287;29;20066;-74
2021/12/10 10:36:48;;;;;;;12.60;8.73;;;;;;;;;;4816236;29;20073;-75
2021/12/10 10:39:16;;;;;;;14.82;8.98;;;;;;;;;;4809533;29;20376;-75
2021/12/10 10:41:44;;;;;;;13.13;8.75;;;;;;;;;;4810622;29;20101;-75
2021/12/10 10:44:10;;;;;;;16.33;9.80;;;;;;;;;;4826620;29;20131;-74
2021/12/10 10:46:36;;;;;;;17.20;9.65;;;;;;;;;;4808635;29;20078;-77
2021/12/10 10:49:04;;;;;;;12.70;8.13;;;;;;;;;;4825802;29;20486;-73
2021/12/10 10:51:32;;;;;;;11.90;8.43;;;;;;;;;;4809710;29;20054;-74
2021/12/10 10:54:00;;;;;;;11.82;9.07;;;;;;;;;;4825732;29;20042;-74
2021/12/10 10:56:31;;;;;;;12.57;8.40;;;;;;;;;;4809526;29;20065;-75
2021/12/10 10:59:01;;;;;;;12.10;8.25;;;;;;;;;;4801275;29;20051;-74
2021/12/10 11:01:40;;;;;;;13.05;8.25;;;;;;;;;;4792184;29;20094;-75
2021/12/10 11:04:14;;;;;;;11.90;7.80;;;;;;;;;;4816440;29;20061;-74
2021/12/10 11:06:42;;;;;;;12.18;7.88;;;;;;;;;;4825101;29;20062;-74
2021/12/10 11:09:19;;;;;;;13.02;8.13;;;;;;;;;;4809970;29;20058;-74
2021/12/10 11:11:56;;;;;;;14.68;8.20;;;;;;;;;;4825110;29;20050;-75
2021/12/10 11:14:28;;;;;;;12.57;7.55;;;;;;;;;;4826079;29;20046;-75
2021/12/10 11:16:57;;;;;;;12.93;8.00;;;;;;;;;;4801301;29;20452;-75
2021/12/10 11:19:28;;;;;;;12.35;8.05;;;;;;;;;;4792412;29;20161;-73
2021/12/10 11:21:57;;;;;;;11.82;7.75;;;;;;;;;;4792175;29;20133;-75
2021/12/10 11:24:34;;;;;;;10.93;7.47;;;;;;;;;;4817507;29;20352;-76
2021/12/10 11:27:02;;;;;;;10.20;7.60;;;;;;;;;;4825224;29;20144;-74
2021/12/10 11:29:30;;;;;;;11.80;7.22;;;;;;;;;;4825433;29;20122;-75
2021/12/10 11:32:00;;;;;;;11.32;7.53;;;;;;;;;;4808478;29;20106;-74
2021/12/10 11:34:45;;;;;;;11.27;7.80;;;;;;;;;;4825495;29;20061;-74
2021/12/10 11:37:12;;;;;;;10.65;7.50;;;;;;;;;;4798678;29;20130;-74
2021/12/10 11:39:49;;;;;;;11.15;7.07;;;;;;;;;;4805391;29;20050;-74
2021/12/10 11:42:42;;;;;;;11.55;7.80;;;;;;;;;;4808713;29;20133;-74
2021/12/10 11:45:41;;;;;;;9.98;7.10;;;;;;;;;;4808582;29;20503;-73
2021/12/10 11:48:11;;;;;;;9.85;7.15;;;;;;;;;;4808956;29;20069;-73
2021/12/10 11:50:39;;;;;;;11.15;7.55;;;;;;;;;;4825376;29;20050;-73
2021/12/10 11:53:07;;;;;;;11.30;7.40;;;;;;;;;;4824873;29;20054;-73
2021/12/10 11:55:35;;;;;;;11.48;6.80;;;;;;;;;;4815208;29;20134;-74
2021/12/10 11:58:02;;;;;;;8.40;6.35;;;;;;;;;;4825415;29;20066;-73
2021/12/10 12:00:30;;;;;;;11.18;7.00;;;;;;;;;;4825225;29;20122;-74
2021/12/10 12:02:58;;;;;;;9.10;6.50;;;;;;;;;;4808444;29;20055;-74
2021/12/10 12:05:26;;;;;;;9.75;6.20;;;;;;;;;;4814700;29;20199;-75
2021/12/10 12:07:53;;;;;;;9.05;5.97;;;;;;;;;;4824533;29;20080;-73
2021/12/10 12:10:22;;;;;;;10.20;6.35;;;;;;;;;;4807534;29;20483;-77
2021/12/10 12:12:48;;;;;;;10.65;6.60;;;;;;;;;;4824696;29;20440;-73
2021/12/10 12:15:14;;;;;;;8.98;6.30;;;;;;;;;;4808401;29;20419;-75
2021/12/10 12:17:42;;;;;;;8.98;6.20;;;;;;;;;;4823216;29;20065;-75
2021/12/10 12:20:25;;;;;;;11.57;6.55;;;;;;;;;;4819883;29;20160;-74
2021/12/10 12:25:43;;;;;;;10.45;6.40;;;;;;;;;;4798604;29;20070;-75
2021/12/10 12:28:15;;;;;;;9.98;6.22;;;;;;;;;;4823960;29;20066;-75
2021/12/10 12:30:55;;;;;;;8.75;6.07;;;;;;;;;;4794868;29;20102;-74
2021/12/10 12:33:24;;;;;;;9.23;6.00;;;;;;;;;;4808230;29;20373;-76
2021/12/10 12:35:51;;;;;;;10.90;6.55;;;;;;;;;;4827828;29;20090;-74
2021/12/10 12:38:30;;;;;;;8.75;5.82;;;;;;;;;;4812047;29;20058;-75
2021/12/10 12:41:08;;;;;;;8.50;6.28;;;;;;;;;;4828083;29;20069;-74
2021/12/10 12:43:35;;;;;;;11.40;6.28;;;;;;;;;;4811689;29;20058;-75
2021/12/10 12:46:05;;;;;;;8.55;6.50;;;;;;;;;;4827878;29;20119;-75
2021/12/10 12:48:31;;;;;;;9.27;6.07;;;;;;;;;;4827836;29;20054;-76
2021/12/10 12:51:02;;;;;;;9.60;6.53;;;;;;;;;;4828140;29;20069;-75
2021/12/10 12:53:30;;;;;;;9.93;7.00;;;;;;;;;;4822120;29;20065;-74
2021/12/10 12:56:02;;;;;;;9.93;6.65;;;;;;;;;;4808923;29;20525;-75
2021/12/10 12:58:31;;;;;;;10.52;6.10;;;;;;;;;;4826946;29;20066;-74
2021/12/10 13:00:58;;;;;;;11.68;6.65;;;;;;;;;;4812329;29;20141;-76
2021/12/10 13:03:30;;;;;;;10.77;6.78;;;;;;;;;;4827287;29;20479;-75
2021/12/10 13:06:09;;;;;;;9.02;6.47;;;;;;;;;;4804801;29;20086;-74
2021/12/10 13:08:37;;;;;;;9.48;6.82;;;;;;;;;;4810881;29;20073;-75
2021/12/10 13:11:06;;;;;;;9.20;5.95;;;;;;;;;;4811982;29;20133;-75
2021/12/10 13:13:35;;;;;;;9.02;6.50;;;;;;;;;;4827109;29;20061;-76
2021/12/10 13:16:01;;;;;;;10.23;6.75;;;;;;;;;;4826627;29;20501;-75
2021/12/10 13:18:27;;;;;;;10.50;6.38;;;;;;;;;;4827814;29;20501;-75
2021/12/10 13:20:54;;;;;;;9.10;5.95;;;;;;;;;;4827134;29;20093;-75
2021/12/10 13:23:22;;;;;;;8.80;6.25;;;;;;;;;;4827464;29;20057;-75
2021/12/10 13:25:50;;;;;;;9.60;6.38;;;;;;;;;;4821720;29;20062;-75
2021/12/10 13:28:16;;;;;;;8.57;6.03;;;;;;;;;;4808922;29;20054;-74
2021/12/10 13:30:45;;;;;;;8.98;6.55;;;;;;;;;;4811713;29;20111;-75
2021/12/10 13:33:13;;;;;;;8.38;6.40;;;;;;;;;;4827360;29;20140;-74
2021/12/10 13:35:40;;;;;;;9.88;6.60;;;;;;;;;;4791521;29;20428;-76
2021/12/10 13:38:07;;;;;;;10.10;6.18;;;;;;;;;;4826515;29;20050;-75
2021/12/10 13:40:35;;;;;;;10.02;6.03;;;;;;;;;;4825478;29;20053;-76
2021/12/10 13:43:04;;;;;;;10.57;6.00;;;;;;;;;;4808951;29;20057;-74
2021/12/10 13:45:30;;;;;;;8.50;6.07;;;;;;;;;;4809393;29;20054;-74
2021/12/10 13:48:02;;;;;;;8.35;5.75;;;;;;;;;;4810460;29;20083;-74
2021/12/10 13:50:29;;;;;;;7.88;6.25;;;;;;;;;;4827061;29;20065;-74
2021/12/10 13:53:04;;;;;;;9.05;5.55;;;;;;;;;;4810847;29;20065;-76
2021/12/10 13:55:39;;;;;;;7.57;5.18;;;;;;;;;;4807692;29;21510;-75
2021/12/10 13:58:11;;;;;;;8.48;5.70;;;;;;;;;;4795092;29;20057;-74
2021/12/10 14:00:39;;;;;;;9.05;5.78;;;;;;;;;;4811312;29;20058;-76
2021/12/10 14:03:05;;;;;;;8.07;5.43;;;;;;;;;;4811041;29;20055;-76
2021/12/10 14:05:36;;;;;;;10.02;5.70;;;;;;;;;;4826100;29;20390;-74
2021/12/10 14:08:08;;;;;;;10.10;5.88;;;;;;;;;;4793629;29;20058;-74
2021/12/10 14:10:36;;;;;;;7.32;5.75;;;;;;;;;;4814406;29;20069;-76
2021/12/10 14:13:04;;;;;;;7.90;5.70;;;;;;;;;;4826643;29;20153;-75
2021/12/10 14:15:45;;;;;;;10.60;6.10;;;;;;;;;;4812303;29;20114;-75
2021/12/10 14:18:20;;;;;;;9.50;6.13;;;;;;;;;;4783684;29;20057;-75
2021/12/10 14:20:46;;;;;;;9.68;6.80;;;;;;;;;;4807276;29;20054;-75
2021/12/10 14:23:15;;;;;;;8.90;5.65;;;;;;;;;;4810307;29;20119;-76
2021/12/10 14:25:45;;;;;;;8.50;5.90;;;;;;;;;;4810615;29;20084;-74
2021/12/10 14:28:17;;;;;;;8.93;6.43;;;;;;;;;;4810677;29;20479;-74
2021/12/10 14:30:46;;;;;;;11.13;6.22;;;;;;;;;;4809081;29;20058;-75
2021/12/10 14:33:14;;;;;;;7.78;5.97;;;;;;;;;;4825027;29;20059;-75
2021/12/10 14:35:50;;;;;;;9.00;6.05;;;;;;;;;;4810037;29;20198;-76
2021/12/10 14:38:16;;;;;;;10.60;6.13;;;;;;;;;;4809737;29;20113;-75
2021/12/10 14:40:49;;;;;;;12.52;7.13;;;;;;;;;;4809424;29;20126;-74
2021/12/10 14:43:26;;;;;;;9.45;6.45;;;;;;;;;;4825742;29;20369;-76
2021/12/10 14:46:06;;;;;;;10.15;7.20;;;;;;;;;;4811041;29;20061;-76